createdAt,value
2022-10-10T00:01:06.644Z,12.00
2022-10-10T00:03:33.584Z,12.00
2022-10-10T00:06:00.486Z,12.00
2022-10-10T00:08:27.445Z,11.90
2022-10-10T00:10:54.397Z,11.90
2022-10-10T00:13:21.540Z,11.90
2022-10-10T00:15:49.040Z,11.80
2022-10-10T00:18:16.810Z,11.80
2022-10-10T00:20:43.720Z,11.80
2022-10-10T00:23:11.041Z,11.80
2022-10-10T00:25:38.172Z,11.80
2022-10-10T00:28:05.585Z,11.80
2022-10-10T00:30:32.706Z,11.80
2022-10-10T00:33:00.130Z,11.80
2022-10-10T00:35:28.219Z,11.80
2022-10-10T00:37:55.243Z,11.80
2022-10-10T00:40:22.627Z,11.80
2022-10-10T00:42:49.948Z,11.80
2022-10-10T00:45:22.876Z,11.80
2022-10-10T00:47:51.423Z,11.90
2022-10-10T00:50:19.384Z,11.90
2022-10-10T00:52:46.927Z,11.90
2022-10-10T00:55:14.769Z,11.90
2022-10-10T00:57:42.225Z,11.90
2022-10-10T01:00:09.811Z,11.90
2022-10-10T01:02:37.092Z,11.90
2022-10-10T01:05:04.937Z,11.90
2022-10-10T01:07:32.373Z,11.90
2022-10-10T01:10:04.298Z,12.00
2022-10-10T01:12:54.068Z,11.90
2022-10-10T01:15:27.148Z,11.90
2022-10-10T01:17:57.858Z,12.00
2022-10-10T01:20:36.864Z,11.90
2022-10-10T01:23:25.427Z,11.90
2022-10-10T01:25:55.464Z,11.90
2022-10-10T01:28:29.726Z,11.90
2022-10-10T01:30:58.922Z,11.90
2022-10-10T01:33:37.669Z,11.90
2022-10-10T01:36:04.720Z,11.90
2022-10-10T01:38:37.909Z,11.90
2022-10-10T01:41:13.266Z,11.90
2022-10-10T01:43:40.279Z,11.90
2022-10-10T01:46:25.895Z,12.00
2022-10-10T01:48:57.773Z,11.90
2022-10-10T01:51:41.493Z,12.00
2022-10-10T01:54:11.493Z,12.00
2022-10-10T01:57:03.204Z,11.90
2022-10-10T02:00:08.643Z,11.80
2022-10-10T02:02:56.966Z,11.70
2022-10-10T02:05:24.039Z,11.60
2022-10-10T02:07:54.100Z,11.50
2022-10-10T02:10:26.183Z,11.40
2022-10-10T02:12:55.113Z,11.30
2022-10-10T02:15:25.313Z,11.20
2022-10-10T02:17:54.184Z,11.20
2022-10-10T02:20:25.036Z,11.10
2022-10-10T02:22:53.882Z,11.00
2022-10-10T02:25:41.503Z,10.90
2022-10-10T02:28:43.257Z,10.90
2022-10-10T02:31:16.333Z,10.80
2022-10-10T02:33:57.932Z,10.70
2022-10-10T02:36:26.996Z,10.70
2022-10-10T02:38:55.712Z,10.60
2022-10-10T02:41:23.444Z,10.60
2022-10-10T02:43:51.749Z,10.60
2022-10-10T02:46:18.870Z,10.50
2022-10-10T02:48:45.866Z,10.50
2022-10-10T02:51:15.414Z,10.50
2022-10-10T02:53:42.387Z,10.50
2022-10-10T02:56:09.270Z,10.50
2022-10-10T02:58:36.250Z,10.50
2022-10-10T03:01:03.463Z,10.50
2022-10-10T03:03:30.467Z,10.40
2022-10-10T03:05:57.428Z,10.50
2022-10-10T03:08:24.465Z,10.40
2022-10-10T03:10:59.743Z,10.40
2022-10-10T03:13:26.997Z,10.40
2022-10-10T03:15:54.679Z,10.40
2022-10-10T03:18:22.014Z,10.40
2022-10-10T03:20:54.827Z,10.40
2022-10-10T03:23:25.122Z,10.40
2022-10-10T03:25:52.440Z,10.40
2022-10-10T03:28:19.521Z,10.40
2022-10-10T03:30:46.676Z,10.40
2022-10-10T03:33:13.856Z,10.40
2022-10-10T03:35:40.823Z,10.40
2022-10-10T03:38:07.851Z,10.40
2022-10-10T03:40:38.541Z,10.40
2022-10-10T03:43:05.447Z,10.40
2022-10-10T03:45:32.416Z,10.40
2022-10-10T03:47:59.410Z,10.40
2022-10-10T03:50:26.369Z,10.30
2022-10-10T03:52:53.613Z,10.40
2022-10-10T03:55:20.793Z,10.30
2022-10-10T03:57:47.720Z,10.30
2022-10-10T04:00:15.031Z,10.30
2022-10-10T04:02:42.189Z,10.30
2022-10-10T04:05:09.721Z,10.30
2022-10-10T04:07:36.894Z,10.20
2022-10-10T04:10:04.900Z,10.20
2022-10-10T04:12:31.966Z,10.20
2022-10-10T04:14:58.942Z,10.10
2022-10-10T04:17:26.057Z,10.10
2022-10-10T04:19:52.927Z,10.00
2022-10-10T04:22:20.146Z,10.00
2022-10-10T04:24:47.066Z,9.90
2022-10-10T04:27:14.126Z,9.90
2022-10-10T04:29:41.038Z,9.90
2022-10-10T04:32:08.123Z,9.90
2022-10-10T04:34:34.999Z,9.80
2022-10-10T04:37:02.042Z,9.80
2022-10-10T04:39:28.993Z,9.80
2022-10-10T04:41:55.942Z,9.80
2022-10-10T04:44:22.896Z,9.70
2022-10-10T04:46:49.861Z,9.70
2022-10-10T04:49:16.795Z,9.70
2022-10-10T04:51:43.778Z,9.70
2022-10-10T04:54:10.854Z,9.70
2022-10-10T04:56:37.998Z,9.60
2022-10-10T04:59:06.606Z,9.60
2022-10-10T05:01:33.409Z,9.60
2022-10-10T05:04:00.625Z,9.60
2022-10-10T05:06:27.702Z,9.60
2022-10-10T05:08:54.644Z,9.60
2022-10-10T05:11:21.609Z,9.60
2022-10-10T05:13:50.686Z,9.50
2022-10-10T05:16:17.898Z,9.50
2022-10-10T05:18:44.848Z,9.50
2022-10-10T05:21:12.085Z,9.50
2022-10-10T05:23:39.277Z,9.50
2022-10-10T05:26:06.309Z,9.50
2022-10-10T05:28:35.356Z,9.50
2022-10-10T05:31:04.268Z,9.40
2022-10-10T05:33:32.197Z,9.40
2022-10-10T05:36:25.818Z,9.40
2022-10-10T05:38:52.729Z,9.40
2022-10-10T05:41:19.646Z,9.40
2022-10-10T05:43:47.022Z,9.40
2022-10-10T05:46:14.523Z,9.40
2022-10-10T05:48:41.501Z,9.40
2022-10-10T05:51:08.708Z,9.30
2022-10-10T05:53:35.871Z,9.30
2022-10-10T05:56:02.845Z,9.30
2022-10-10T05:58:30.870Z,9.30
2022-10-10T06:01:06.266Z,9.30
2022-10-10T06:03:34.159Z,9.30
2022-10-10T06:06:02.135Z,9.20
2022-10-10T06:08:31.131Z,9.30
2022-10-10T06:11:03.378Z,9.20
2022-10-10T06:13:30.365Z,9.20
2022-10-10T06:15:58.128Z,9.30
2022-10-10T06:18:25.773Z,9.30
2022-10-10T06:20:52.762Z,9.30
2022-10-10T06:23:20.220Z,9.20
2022-10-10T06:25:47.566Z,9.20
2022-10-10T06:28:14.725Z,9.30
2022-10-10T06:30:43.755Z,9.30
2022-10-10T06:33:12.221Z,9.20
2022-10-10T06:35:41.829Z,9.20
2022-10-10T06:38:09.797Z,9.30
2022-10-10T06:40:36.975Z,9.20
2022-10-10T06:43:04.751Z,9.20
2022-10-10T06:45:36.575Z,9.20
2022-10-10T06:48:03.697Z,9.20
2022-10-10T06:50:30.617Z,9.20
2022-10-10T06:52:57.955Z,9.20
2022-10-10T06:55:24.877Z,9.20
2022-10-10T06:57:51.991Z,9.30
2022-10-10T07:00:19.903Z,9.30
2022-10-10T07:02:47.285Z,9.30
2022-10-10T07:05:16.637Z,9.30
2022-10-10T07:07:45.192Z,9.30
2022-10-10T07:10:15.062Z,9.30
2022-10-10T07:12:52.421Z,9.30
2022-10-10T07:15:19.507Z,9.40
2022-10-10T07:17:49.345Z,9.30
2022-10-10T07:20:20.461Z,9.30
2022-10-10T07:22:47.435Z,9.30
2022-10-10T07:25:14.471Z,9.30
2022-10-10T07:27:41.432Z,9.30
2022-10-10T07:30:09.072Z,9.30
2022-10-10T07:32:36.188Z,9.40
2022-10-10T07:35:03.300Z,9.40
2022-10-10T07:37:30.238Z,9.30
2022-10-10T07:39:57.241Z,9.40
2022-10-10T07:42:24.207Z,9.40
2022-10-10T07:44:51.166Z,9.40
2022-10-10T07:47:18.100Z,9.40
2022-10-10T07:49:45.164Z,9.50
2022-10-10T07:52:12.274Z,9.50
2022-10-10T07:54:39.221Z,9.50
2022-10-10T07:57:06.141Z,9.60
2022-10-10T07:59:33.082Z,9.60
2022-10-10T08:02:00.146Z,9.60
2022-10-10T08:04:27.242Z,9.70
2022-10-10T08:06:54.248Z,9.70
2022-10-10T08:09:21.280Z,9.70
2022-10-10T08:11:48.863Z,9.80
2022-10-10T08:14:16.017Z,9.80
2022-10-10T08:16:43.103Z,9.80
2022-10-10T08:19:10.358Z,9.90
2022-10-10T08:21:38.784Z,9.90
2022-10-10T08:24:08.546Z,10.00
2022-10-10T08:26:35.625Z,10.00
2022-10-10T08:29:53.324Z,10.10
2022-10-10T08:32:20.301Z,10.10
2022-10-10T08:34:47.272Z,10.20
2022-10-10T08:37:14.392Z,10.30
2022-10-10T08:39:41.712Z,10.40
2022-10-10T08:42:21.711Z,10.50
2022-10-10T08:44:54.057Z,10.70
2022-10-10T08:47:28.695Z,10.90
2022-10-10T08:50:16.897Z,11.20
2022-10-10T08:52:56.083Z,11.50
2022-10-10T08:55:37.928Z,11.70
2022-10-10T08:58:27.799Z,11.90
2022-10-10T09:00:59.266Z,12.00
2022-10-10T09:03:50.821Z,12.10
2022-10-10T09:06:20.673Z,12.30
2022-10-10T09:09:08.209Z,12.50
2022-10-10T09:11:38.119Z,12.70
2022-10-10T09:14:30.216Z,12.80
2022-10-10T09:17:18.714Z,12.90
2022-10-10T09:19:49.034Z,12.90
2022-10-10T09:22:23.887Z,12.90
2022-10-10T09:25:07.053Z,12.90
2022-10-10T09:27:43.103Z,12.80
2022-10-10T09:30:22.119Z,12.70
2022-10-10T09:33:03.961Z,12.60
2022-10-10T09:35:42.254Z,12.60
2022-10-10T09:38:29.271Z,12.50
2022-10-10T09:41:24.775Z,12.50
2022-10-10T09:44:06.576Z,12.50
2022-10-10T09:46:33.925Z,12.60
2022-10-10T09:49:01.044Z,12.60
2022-10-10T09:51:30.910Z,12.60
2022-10-10T09:53:57.792Z,12.70
2022-10-10T09:56:38.804Z,12.70
2022-10-10T09:59:05.926Z,12.70
2022-10-10T10:01:33.089Z,12.80
2022-10-10T10:04:33.970Z,12.90
2022-10-10T10:07:07.342Z,13.10
2022-10-10T10:09:34.575Z,13.40
2022-10-10T10:12:01.733Z,13.60
2022-10-10T10:14:37.833Z,13.70
2022-10-10T10:17:15.102Z,13.90
2022-10-10T10:19:46.793Z,14.00
2022-10-10T10:22:38.226Z,14.30
2022-10-10T10:25:36.971Z,14.70
2022-10-10T10:28:11.079Z,15.20
2022-10-10T10:30:39.612Z,15.80
2022-10-10T10:33:06.433Z,16.30
2022-10-10T10:35:46.807Z,16.80
2022-10-10T10:38:39.790Z,17.40
2022-10-10T10:41:20.066Z,17.90
2022-10-10T10:44:17.102Z,18.50
2022-10-10T10:47:23.619Z,18.90
2022-10-10T10:50:22.500Z,19.20
2022-10-10T10:53:09.197Z,19.30
2022-10-10T10:55:59.161Z,19.10
2022-10-10T10:59:22.672Z,18.90
2022-10-10T11:01:56.290Z,18.60
2022-10-10T11:05:22.074Z,18.20
2022-10-10T11:08:38.572Z,17.90
2022-10-10T11:11:42.192Z,17.60
2022-10-10T11:14:39.952Z,17.50
2022-10-10T11:17:38.640Z,17.40
2022-10-10T11:20:55.260Z,17.40
2022-10-10T11:23:32.489Z,17.40
2022-10-10T11:26:26.704Z,17.50
2022-10-10T11:29:03.959Z,17.60
2022-10-10T11:31:37.068Z,17.60
2022-10-10T11:34:09.946Z,17.60
2022-10-10T11:36:43.989Z,17.50
2022-10-10T11:39:25.226Z,17.40
2022-10-10T11:42:01.351Z,17.20
2022-10-10T11:44:36.330Z,17.10
2022-10-10T11:47:20.249Z,17.00
2022-10-10T11:49:56.682Z,16.90
2022-10-10T11:52:37.213Z,16.70
2022-10-10T11:55:18.645Z,16.60
2022-10-10T11:57:53.297Z,16.40
2022-10-10T12:00:20.640Z,16.30
2022-10-10T12:02:48.487Z,16.20
2022-10-10T12:05:37.922Z,16.10
2022-10-10T12:08:21.943Z,15.90
2022-10-10T12:11:01.598Z,15.80
2022-10-10T12:13:31.455Z,15.70
2022-10-10T12:16:02.897Z,15.60
2022-10-10T12:18:38.807Z,15.60
2022-10-10T12:21:19.402Z,15.50
2022-10-10T12:23:49.945Z,15.50
2022-10-10T12:26:20.504Z,15.50
2022-10-10T12:29:10.531Z,15.40
2022-10-10T12:31:39.490Z,15.30
2022-10-10T12:34:44.070Z,15.20
2022-10-10T12:37:30.581Z,15.20
2022-10-10T12:40:01.117Z,15.10
2022-10-10T12:42:31.336Z,15.00
2022-10-10T12:44:58.826Z,15.00
2022-10-10T12:47:59.919Z,15.00
2022-10-10T12:50:26.984Z,14.90
2022-10-10T12:53:00.494Z,14.90
2022-10-10T12:55:30.408Z,14.80
2022-10-10T12:58:00.850Z,14.60
2022-10-10T13:00:45.838Z,14.60
2022-10-10T13:03:26.410Z,14.50
2022-10-10T13:05:54.497Z,14.50
2022-10-10T13:08:27.123Z,14.50
2022-10-10T13:11:15.438Z,14.40
2022-10-10T13:17:31.547Z,14.30
2022-10-10T13:20:02.618Z,14.30
2022-10-10T13:22:36.187Z,14.20
2022-10-10T13:25:05.549Z,14.10
2022-10-10T13:27:35.319Z,14.10
2022-10-10T13:30:03.458Z,14.00
2022-10-10T13:32:34.604Z,14.00
2022-10-10T13:35:15.510Z,14.00
2022-10-10T13:38:08.565Z,14.00
2022-10-10T13:40:35.631Z,14.00
2022-10-10T13:43:02.598Z,14.00
2022-10-10T13:45:35.010Z,14.00
2022-10-10T13:48:02.070Z,13.90
2022-10-10T13:50:35.123Z,13.90
2022-10-10T13:53:25.105Z,13.90
2022-10-10T13:56:19.657Z,13.80
2022-10-10T13:58:52.794Z,13.80
2022-10-10T14:01:35.749Z,13.70
2022-10-10T14:04:24.614Z,13.70
2022-10-10T14:07:03.919Z,13.60
2022-10-10T14:09:44.080Z,13.50
2022-10-10T14:12:33.242Z,13.50
2022-10-10T14:15:01.614Z,13.40
2022-10-10T14:17:29.848Z,13.40
2022-10-10T14:19:57.705Z,13.40
2022-10-10T14:22:27.261Z,13.40
2022-10-10T14:24:54.308Z,13.40
2022-10-10T14:27:27.868Z,13.40
2022-10-10T14:29:57.250Z,13.30
2022-10-10T14:32:24.531Z,13.30
2022-10-10T14:34:52.345Z,13.30
2022-10-10T14:37:25.260Z,13.30
2022-10-10T14:39:53.048Z,13.30
2022-10-10T14:42:21.640Z,13.20
2022-10-10T14:44:49.288Z,13.20
2022-10-10T14:47:24.526Z,13.20
2022-10-10T14:49:56.662Z,13.20
2022-10-10T14:52:23.690Z,13.20
2022-10-10T14:54:53.812Z,13.20
2022-10-10T14:57:22.357Z,13.20
2022-10-10T14:59:50.335Z,13.10
2022-10-10T15:02:19.517Z,13.10
2022-10-10T15:04:46.450Z,13.10
2022-10-10T15:07:15.133Z,13.10
2022-10-10T15:10:02.566Z,13.10
2022-10-10T15:12:31.596Z,13.00
2022-10-10T15:14:58.588Z,13.00
2022-10-10T15:17:27.174Z,13.00
2022-10-10T15:19:54.072Z,13.00
2022-10-10T15:22:21.360Z,13.00
2022-10-10T15:24:48.425Z,13.00
2022-10-10T15:27:15.471Z,13.00
2022-10-10T15:29:42.375Z,12.90
2022-10-10T15:32:09.365Z,13.00
2022-10-10T15:34:36.531Z,12.90
2022-10-10T15:37:08.054Z,12.90
2022-10-10T15:39:37.189Z,12.90
2022-10-10T15:42:14.252Z,12.90
2022-10-10T15:44:47.603Z,12.90
2022-10-10T15:47:16.125Z,12.90
2022-10-10T15:49:43.144Z,12.90
2022-10-10T15:52:10.780Z,12.90
2022-10-10T15:54:39.200Z,12.90
2022-10-10T15:57:06.299Z,12.90
2022-10-10T15:59:33.613Z,12.90
2022-10-10T16:02:01.575Z,12.80
2022-10-10T16:04:28.613Z,12.80
2022-10-10T16:09:42.803Z,12.70
2022-10-10T16:12:09.818Z,12.70
2022-10-10T16:14:37.012Z,12.70
2022-10-10T16:17:04.426Z,12.70
2022-10-10T16:19:31.574Z,12.70
2022-10-10T16:21:59.252Z,12.60
2022-10-10T16:24:26.293Z,12.60
2022-10-10T16:26:54.661Z,12.60
2022-10-10T16:29:22.546Z,12.60
2022-10-10T16:31:49.594Z,12.60
2022-10-10T16:34:17.465Z,12.50
2022-10-10T16:36:44.665Z,12.50
2022-10-10T16:39:12.863Z,12.50
2022-10-10T16:41:47.967Z,12.50
2022-10-10T16:44:15.544Z,12.50
2022-10-10T16:46:42.525Z,12.50
2022-10-10T16:49:16.820Z,12.40
2022-10-10T16:51:44.084Z,12.40
2022-10-10T16:54:11.206Z,12.40
2022-10-10T16:56:38.482Z,12.40
2022-10-10T16:59:05.850Z,12.30
2022-10-10T17:01:33.055Z,12.30
2022-10-10T17:04:01.389Z,12.30
2022-10-10T17:06:34.903Z,12.30
2022-10-10T17:09:03.067Z,12.30
2022-10-10T17:11:29.971Z,12.30
2022-10-10T17:13:57.508Z,12.20
2022-10-10T17:19:14.636Z,12.20
2022-10-10T17:21:41.582Z,12.20
2022-10-10T17:24:08.593Z,12.20
2022-10-10T17:26:35.572Z,12.10
2022-10-10T17:29:02.576Z,12.10
2022-10-10T17:31:29.531Z,12.20
2022-10-10T17:33:57.600Z,12.20
2022-10-10T17:36:26.502Z,12.20
2022-10-10T17:38:56.108Z,12.10
2022-10-10T17:41:23.954Z,12.20
2022-10-10T17:43:51.032Z,12.20
2022-10-10T17:46:34.968Z,12.10
2022-10-10T17:49:07.349Z,12.10
2022-10-10T17:51:36.030Z,12.10
2022-10-10T17:54:04.303Z,12.00
2022-10-10T17:56:31.717Z,12.00
2022-10-10T17:59:02.574Z,12.00
2022-10-10T18:01:33.439Z,12.00
2022-10-10T18:04:02.062Z,11.90
2022-10-10T18:06:29.542Z,11.90
2022-10-10T18:08:57.149Z,11.90
2022-10-10T18:11:27.658Z,11.80
2022-10-10T18:14:00.378Z,11.80
2022-10-10T18:16:30.267Z,11.80
2022-10-10T18:18:58.604Z,11.80
2022-10-10T18:21:26.060Z,11.80
2022-10-10T18:23:54.262Z,11.70
2022-10-10T18:26:26.106Z,11.70
2022-10-10T18:28:55.702Z,11.70
2022-10-10T18:31:29.187Z,11.60
2022-10-10T18:33:56.455Z,11.60
2022-10-10T18:36:26.172Z,11.50
2022-10-10T18:38:53.442Z,11.60
2022-10-10T18:41:23.001Z,11.50
2022-10-10T18:43:51.392Z,11.50
2022-10-10T18:46:22.606Z,11.40
2022-10-10T18:48:53.759Z,11.40
2022-10-10T18:51:26.545Z,11.30
2022-10-10T18:53:58.555Z,11.30
2022-10-10T18:56:25.677Z,11.30
2022-10-10T18:58:55.513Z,11.30
2022-10-10T19:01:25.055Z,11.30
2022-10-10T19:03:53.594Z,11.30
2022-10-10T19:06:22.364Z,11.30
2022-10-10T19:08:51.805Z,11.20
2022-10-10T19:11:24.218Z,11.20
2022-10-10T19:13:51.611Z,11.20
2022-10-10T19:16:19.002Z,11.20
2022-10-10T19:18:46.327Z,11.20
2022-10-10T19:21:15.220Z,11.10
2022-10-10T19:23:42.900Z,11.20
2022-10-10T19:26:13.989Z,11.10
2022-10-10T19:28:41.881Z,11.10
2022-10-10T19:31:12.215Z,11.10
2022-10-10T19:33:40.171Z,11.00
2022-10-10T19:36:11.794Z,11.00
2022-10-10T19:38:41.205Z,11.00
2022-10-10T19:41:13.727Z,11.00
2022-10-10T19:43:42.365Z,11.00
2022-10-10T19:46:10.802Z,10.90
2022-10-10T19:48:37.934Z,10.90
2022-10-10T19:51:09.047Z,10.90
2022-10-10T19:53:38.693Z,10.90
2022-10-10T19:56:10.428Z,10.90
2022-10-10T19:58:37.784Z,10.90
2022-10-10T20:01:13.687Z,10.90
2022-10-10T20:03:41.507Z,10.80
2022-10-10T20:06:08.737Z,10.80
2022-10-10T20:08:35.968Z,10.80
2022-10-10T20:11:03.827Z,10.80
2022-10-10T20:13:32.377Z,10.80
2022-10-10T20:16:01.688Z,10.80
2022-10-10T20:18:29.558Z,10.80
2022-10-10T20:20:56.462Z,10.80
2022-10-10T20:23:25.094Z,10.70
2022-10-10T20:25:52.556Z,10.70
2022-10-10T20:28:20.926Z,10.80
2022-10-10T20:30:50.804Z,10.70
2022-10-10T20:33:21.276Z,10.70
2022-10-10T20:36:02.464Z,10.70
2022-10-10T20:38:29.450Z,10.70
2022-10-10T20:40:56.408Z,10.70
2022-10-10T20:43:23.387Z,10.70
2022-10-10T20:45:50.298Z,10.70
2022-10-10T20:48:17.328Z,10.70
2022-10-10T20:50:44.254Z,10.70
2022-10-10T20:53:12.869Z,10.60
2022-10-10T20:55:39.686Z,10.60
2022-10-10T20:58:06.573Z,10.60
2022-10-10T21:00:33.927Z,10.60
2022-10-10T21:03:01.068Z,10.60
2022-10-10T21:05:28.065Z,10.60
2022-10-10T21:07:55.002Z,10.60
2022-10-10T21:10:21.952Z,10.50
2022-10-10T21:12:48.953Z,10.60
2022-10-10T21:15:16.216Z,10.50
2022-10-10T21:17:43.894Z,10.50
2022-10-10T21:20:19.219Z,10.50
2022-10-10T21:22:48.401Z,10.50
2022-10-10T21:25:15.468Z,10.50
2022-10-10T21:27:42.587Z,10.40
2022-10-10T21:30:09.858Z,10.50
2022-10-10T21:32:36.761Z,10.40
2022-10-10T21:35:04.034Z,10.40
2022-10-10T21:37:32.493Z,10.40
2022-10-10T21:39:59.462Z,10.40
2022-10-10T21:42:26.379Z,10.30
2022-10-10T21:44:53.294Z,10.30
2022-10-10T21:47:20.304Z,10.30
2022-10-10T21:49:47.292Z,10.30
2022-10-10T21:52:14.287Z,10.20
2022-10-10T21:54:41.211Z,10.20
2022-10-10T21:57:08.211Z,10.20
2022-10-10T21:59:35.154Z,10.20
2022-10-10T22:02:02.248Z,10.20
2022-10-10T22:04:29.341Z,10.20
2022-10-10T22:06:56.391Z,10.20
2022-10-10T22:09:23.326Z,10.20
2022-10-10T22:11:50.241Z,10.20
2022-10-10T22:14:17.332Z,10.20
2022-10-10T22:16:44.400Z,10.20
2022-10-10T22:19:11.326Z,10.10
2022-10-10T22:21:38.434Z,10.10
2022-10-10T22:24:07.568Z,10.10
2022-10-10T22:26:35.329Z,10.10
2022-10-10T22:29:03.596Z,10.10
2022-10-10T22:31:30.598Z,10.00
2022-10-10T22:33:57.905Z,10.10
2022-10-10T22:36:25.101Z,10.00
2022-10-10T22:38:52.638Z,10.00
2022-10-10T22:41:19.537Z,10.00
2022-10-10T22:43:46.852Z,10.00
2022-10-10T22:46:13.999Z,10.00
2022-10-10T22:48:41.131Z,10.00
2022-10-10T22:51:12.425Z,10.00
2022-10-10T22:53:40.982Z,9.90
2022-10-10T22:56:09.872Z,9.90
2022-10-10T22:58:37.184Z,9.90
2022-10-10T23:01:09.892Z,9.90
2022-10-10T23:03:37.110Z,9.80
2022-10-10T23:06:04.974Z,9.90
2022-10-10T23:08:32.321Z,9.80
2022-10-10T23:10:59.293Z,9.80
2022-10-10T23:13:26.749Z,9.80
2022-10-10T23:15:53.797Z,9.80
2022-10-10T23:18:20.764Z,9.80
2022-10-10T23:20:49.194Z,9.80
2022-10-10T23:23:17.834Z,9.70
2022-10-10T23:25:45.939Z,9.70
2022-10-10T23:28:13.753Z,9.70
2022-10-10T23:30:42.784Z,9.70
2022-10-10T23:33:10.740Z,9.60
2022-10-10T23:35:37.995Z,9.60
2022-10-10T23:38:05.814Z,9.60
2022-10-10T23:40:33.922Z,9.60
2022-10-10T23:43:00.990Z,9.50
2022-10-10T23:45:28.229Z,9.50
2022-10-10T23:47:55.159Z,9.50
2022-10-10T23:50:22.261Z,9.50
2022-10-10T23:52:49.411Z,9.50
2022-10-10T23:55:17.524Z,9.50
2022-10-10T23:57:44.529Z,9.50
